createdAt,value
2019-05-09T00:02:11.001Z,11.80
2019-05-09T00:04:40.558Z,11.78
2019-05-09T00:07:10.233Z,10.05
2019-05-09T00:09:39.747Z,11.20
2019-05-09T00:12:09.262Z,11.78
2019-05-09T00:14:38.770Z,9.88
2019-05-09T00:17:08.269Z,11.00
2019-05-09T00:19:37.808Z,9.03
2019-05-09T00:22:07.342Z,8.73
2019-05-09T00:24:36.973Z,9.18
2019-05-09T00:27:06.710Z,8.78
2019-05-09T00:29:41.187Z,9.85
2019-05-09T00:32:34.053Z,8.23
2019-05-09T00:35:38.070Z,7.47
2019-05-09T00:38:08.925Z,7.00
2019-05-09T00:40:51.592Z,5.87
2019-05-09T00:43:09.651Z,6.00
2019-05-09T00:46:01.007Z,5.58
2019-05-09T00:48:53.378Z,6.58
2019-05-09T00:51:23.427Z,5.28
2019-05-09T00:53:53.767Z,5.80
2019-05-09T00:56:23.916Z,4.40
2019-05-09T00:58:53.809Z,4.85
2019-05-09T01:01:24.017Z,4.65
2019-05-09T01:03:53.905Z,4.62
2019-05-09T01:06:24.187Z,5.70
2019-05-09T01:08:53.978Z,5.80
2019-05-09T01:11:24.354Z,4.60
2019-05-09T01:13:54.564Z,4.10
2019-05-09T01:16:24.458Z,4.33
2019-05-09T01:18:54.596Z,4.40
2019-05-09T01:21:24.348Z,4.40
2019-05-09T01:23:54.150Z,3.65
2019-05-09T01:26:24.208Z,4.40
2019-05-09T01:28:54.248Z,3.52
2019-05-09T01:31:24.348Z,3.90
2019-05-09T01:34:18.801Z,4.70
2019-05-09T01:37:07.614Z,4.37
2019-05-09T01:39:37.620Z,4.70
2019-05-09T01:42:07.306Z,4.30
2019-05-09T01:44:36.796Z,4.25
2019-05-09T01:47:06.353Z,3.65
2019-05-09T01:49:35.869Z,3.65
2019-05-09T01:52:05.585Z,4.08
2019-05-09T01:54:37.019Z,5.72
2019-05-09T01:57:06.550Z,4.97
2019-05-09T01:59:36.108Z,5.17
2019-05-09T02:02:08.474Z,5.30
2019-05-09T02:04:37.106Z,4.55
2019-05-09T02:07:06.621Z,4.45
2019-05-09T02:09:36.129Z,4.40
2019-05-09T02:12:05.662Z,4.53
2019-05-09T02:14:43.656Z,4.62
2019-05-09T02:17:54.807Z,3.58
2019-05-09T02:20:13.656Z,4.28
2019-05-09T02:22:43.561Z,4.03
2019-05-09T02:25:13.778Z,4.17
2019-05-09T02:27:43.696Z,4.05
2019-05-09T02:30:15.342Z,3.80
2019-05-09T02:32:45.185Z,4.25
2019-05-09T02:35:14.866Z,4.58
2019-05-09T02:37:44.468Z,5.22
2019-05-09T02:40:14.225Z,4.47
2019-05-09T02:42:43.894Z,3.65
2019-05-09T02:45:13.497Z,4.35
2019-05-09T02:47:43.076Z,4.33
2019-05-09T02:50:14.067Z,5.33
2019-05-09T02:52:43.630Z,5.28
2019-05-09T02:55:13.253Z,5.17
2019-05-09T02:57:43.062Z,5.95
2019-05-09T03:00:29.121Z,6.25
2019-05-09T03:03:03.672Z,6.78
2019-05-09T03:05:33.188Z,5.33
2019-05-09T03:08:02.769Z,7.00
2019-05-09T03:10:32.359Z,7.20
2019-05-09T03:13:01.961Z,7.00
2019-05-09T03:15:31.571Z,6.50
2019-05-09T03:18:01.187Z,6.47
2019-05-09T03:20:49.776Z,6.65
2019-05-09T03:23:19.526Z,6.28
2019-05-09T03:25:49.067Z,4.33
2019-05-09T03:28:40.485Z,5.08
2019-05-09T03:31:10.986Z,5.78
2019-05-09T03:33:41.174Z,5.03
2019-05-09T03:36:10.625Z,4.60
2019-05-09T03:38:40.206Z,7.97
2019-05-09T03:41:09.746Z,5.17
2019-05-09T03:43:39.177Z,4.30
2019-05-09T03:46:18.036Z,4.30
2019-05-09T03:48:50.449Z,5.53
2019-05-09T03:51:19.968Z,4.65
2019-05-09T03:53:50.558Z,4.60
2019-05-09T03:56:24.171Z,4.87
2019-05-09T03:58:53.903Z,4.42
2019-05-09T04:01:23.489Z,4.60
2019-05-09T04:03:53.020Z,5.80
2019-05-09T04:06:22.609Z,5.67
2019-05-09T04:08:53.955Z,6.00
2019-05-09T04:11:23.561Z,5.28
2019-05-09T04:13:58.184Z,6.65
2019-05-09T04:16:27.870Z,5.40
2019-05-09T04:18:58.158Z,6.03
2019-05-09T04:21:28.084Z,5.35
2019-05-09T04:23:58.547Z,5.60
2019-05-09T04:26:38.067Z,6.30
2019-05-09T04:29:08.120Z,6.33
2019-05-09T04:31:38.318Z,6.55
2019-05-09T04:34:09.781Z,6.70
2019-05-09T04:36:39.301Z,7.22
2019-05-09T04:39:12.735Z,5.85
2019-05-09T04:41:41.995Z,6.67
2019-05-09T04:44:19.321Z,6.55
2019-05-09T04:46:48.134Z,5.70
2019-05-09T04:49:19.109Z,5.50
2019-05-09T04:51:48.793Z,6.10
2019-05-09T04:54:18.330Z,7.45
2019-05-09T04:57:07.801Z,5.85
2019-05-09T04:59:37.588Z,5.97
2019-05-09T05:02:29.213Z,5.80
2019-05-09T05:04:58.970Z,5.62
2019-05-09T05:07:28.934Z,5.30
2019-05-09T05:09:58.876Z,4.97
2019-05-09T05:12:28.491Z,4.72
2019-05-09T05:14:58.600Z,3.90
2019-05-09T05:17:30.632Z,3.25
2019-05-09T05:20:00.713Z,3.67
2019-05-09T05:22:38.545Z,3.27
2019-05-09T05:25:09.257Z,2.57
2019-05-09T05:27:38.995Z,2.60
2019-05-09T05:30:08.839Z,2.43
2019-05-09T05:32:53.925Z,2.30
2019-05-09T05:35:38.688Z,2.50
2019-05-09T05:38:10.907Z,5.30
2019-05-09T05:40:44.817Z,2.23
2019-05-09T05:43:14.018Z,2.40
2019-05-09T05:45:52.599Z,2.33
2019-05-09T05:48:27.860Z,1.80
2019-05-09T05:50:57.792Z,3.00
2019-05-09T05:53:27.907Z,2.30
2019-05-09T05:55:58.071Z,2.77
2019-05-09T05:58:28.400Z,2.70
2019-05-09T06:00:59.031Z,1.83
2019-05-09T06:03:28.740Z,2.40
2019-05-09T06:05:58.642Z,2.80
2019-05-09T06:08:28.307Z,2.17
2019-05-09T06:10:57.901Z,3.20
2019-05-09T06:13:27.647Z,3.00
2019-05-09T06:15:58.619Z,2.30
2019-05-09T06:18:28.570Z,2.37
2019-05-09T06:20:58.397Z,2.17
2019-05-09T06:23:28.348Z,2.00
2019-05-09T06:25:58.944Z,1.60
2019-05-09T06:28:28.575Z,2.17
2019-05-09T06:30:59.218Z,2.20
2019-05-09T06:33:28.875Z,2.70
2019-05-09T06:35:59.070Z,3.20
2019-05-09T06:38:28.929Z,2.47
2019-05-09T06:40:58.663Z,3.63
2019-05-09T06:43:30.841Z,2.40
2019-05-09T06:46:12.937Z,3.07
2019-05-09T06:48:42.661Z,3.20
2019-05-09T06:51:12.443Z,2.80
2019-05-09T06:53:42.173Z,2.87
2019-05-09T06:56:11.770Z,3.25
2019-05-09T06:58:41.427Z,2.22
2019-05-09T07:01:40.347Z,2.40
2019-05-09T07:04:20.069Z,2.45
2019-05-09T07:07:03.713Z,2.58
2019-05-09T07:09:38.440Z,2.67
2019-05-09T07:12:08.443Z,2.17
2019-05-09T07:14:42.085Z,2.98
2019-05-09T07:17:12.608Z,2.50
2019-05-09T07:19:44.315Z,2.72
2019-05-09T07:22:39.567Z,3.72
2019-05-09T07:25:44.165Z,3.00
2019-05-09T07:28:13.741Z,3.55
2019-05-09T07:30:50.451Z,2.40
2019-05-09T07:33:33.734Z,2.00
2019-05-09T07:36:03.192Z,2.45
2019-05-09T07:38:33.281Z,3.05
2019-05-09T07:41:03.162Z,2.67
2019-05-09T07:43:32.913Z,3.00
2019-05-09T07:46:08.817Z,2.37
2019-05-09T07:48:43.425Z,2.23
2019-05-09T07:51:13.118Z,2.50
2019-05-09T07:53:43.182Z,2.30
2019-05-09T07:56:13.676Z,2.80
2019-05-09T07:58:43.425Z,2.63
2019-05-09T08:01:13.123Z,1.60
2019-05-09T08:03:42.812Z,2.17
2019-05-09T08:06:12.326Z,2.90
2019-05-09T08:08:42.321Z,2.57
2019-05-09T08:11:12.065Z,2.30
2019-05-09T08:13:41.681Z,2.67
2019-05-09T08:16:14.555Z,2.23
2019-05-09T08:18:43.539Z,2.40
2019-05-09T08:21:13.088Z,1.80
2019-05-09T08:23:42.996Z,2.20
2019-05-09T08:26:12.617Z,2.30
2019-05-09T08:28:42.630Z,2.10
2019-05-09T08:31:12.376Z,2.27
2019-05-09T08:33:42.087Z,2.10
2019-05-09T08:36:30.913Z,2.60
2019-05-09T08:39:01.204Z,2.10
2019-05-09T08:41:30.951Z,2.20
2019-05-09T08:44:00.487Z,2.30
2019-05-09T08:46:30.161Z,1.80
2019-05-09T08:48:59.743Z,2.50
2019-05-09T08:51:47.343Z,2.93
2019-05-09T08:54:09.314Z,2.33
2019-05-09T08:56:39.134Z,1.90
2019-05-09T08:59:08.820Z,2.60
2019-05-09T09:02:08.296Z,2.90
2019-05-09T09:04:13.500Z,2.13
2019-05-09T09:06:43.204Z,2.40
2019-05-09T09:09:12.875Z,2.20
2019-05-09T09:11:43.218Z,2.03
2019-05-09T09:14:13.178Z,2.23
2019-05-09T09:16:42.817Z,2.17
2019-05-09T09:19:12.409Z,2.07
2019-05-09T09:21:42.038Z,1.67
2019-05-09T09:24:11.913Z,2.23
2019-05-09T09:26:41.679Z,2.80
2019-05-09T09:29:11.308Z,1.77
2019-05-09T09:31:40.846Z,2.90
2019-05-09T09:34:10.450Z,2.20
2019-05-09T09:36:40.266Z,1.63
2019-05-09T09:39:09.877Z,2.07
2019-05-09T09:41:39.453Z,2.27
2019-05-09T09:44:09.078Z,1.53
2019-05-09T09:46:38.667Z,2.30
2019-05-09T09:49:08.226Z,2.43
2019-05-09T09:51:38.345Z,2.70
2019-05-09T09:54:08.804Z,2.80
2019-05-09T09:56:38.935Z,1.63
2019-05-09T09:59:19.001Z,1.80
2019-05-09T10:01:49.424Z,1.80
2019-05-09T10:04:23.739Z,2.70
2019-05-09T10:06:52.949Z,2.10
2019-05-09T10:09:21.566Z,2.30
2019-05-09T10:11:51.890Z,1.70
2019-05-09T10:14:28.314Z,1.63
2019-05-09T10:17:10.527Z,1.80
2019-05-09T10:19:48.274Z,1.57
2019-05-09T10:22:23.916Z,1.80
2019-05-09T10:24:52.004Z,1.70
2019-05-09T10:27:21.534Z,1.63
2019-05-09T10:29:51.260Z,1.10
2019-05-09T10:32:20.738Z,1.77
2019-05-09T10:34:50.483Z,1.73
2019-05-09T10:37:19.979Z,1.60
2019-05-09T10:39:49.557Z,1.60
2019-05-09T10:42:32.854Z,1.60
2019-05-09T10:45:22.248Z,2.60
2019-05-09T10:47:51.805Z,1.33
2019-05-09T10:50:21.531Z,2.20
2019-05-09T10:52:51.011Z,1.23
2019-05-09T10:55:21.151Z,1.87
2019-05-09T10:57:52.693Z,1.70
2019-05-09T11:00:22.429Z,1.17
2019-05-09T11:02:51.943Z,1.90
2019-05-09T11:05:22.242Z,1.70
2019-05-09T11:07:52.722Z,1.90
2019-05-09T11:10:28.383Z,1.90
2019-05-09T11:12:53.446Z,1.77
2019-05-09T11:15:23.047Z,2.70
2019-05-09T11:17:52.594Z,2.73
2019-05-09T11:20:22.131Z,1.90
2019-05-09T11:22:51.711Z,2.20
2019-05-09T11:25:21.526Z,1.87
2019-05-09T11:28:06.783Z,1.40
2019-05-09T11:30:22.479Z,1.40
2019-05-09T11:32:52.115Z,1.43
2019-05-09T11:35:22.909Z,1.60
2019-05-09T11:37:52.534Z,1.50
2019-05-09T11:40:22.152Z,1.40
2019-05-09T11:42:51.777Z,1.30
2019-05-09T11:45:21.404Z,2.07
2019-05-09T11:47:50.957Z,1.30
2019-05-09T11:50:23.235Z,1.37
2019-05-09T11:52:51.873Z,1.50
2019-05-09T11:55:35.019Z,1.50
2019-05-09T11:57:52.705Z,1.40
2019-05-09T12:00:22.464Z,2.30
2019-05-09T12:02:52.040Z,1.00
2019-05-09T12:05:21.593Z,1.40
2019-05-09T12:07:51.181Z,0.90
2019-05-09T12:10:20.850Z,1.83
2019-05-09T12:12:50.467Z,1.70
2019-05-09T12:15:20.074Z,1.50
2019-05-09T12:17:57.509Z,1.23
2019-05-09T12:20:20.845Z,1.20
2019-05-09T12:22:50.475Z,1.27
2019-05-09T12:25:20.037Z,3.27
2019-05-09T12:27:49.740Z,1.10
2019-05-09T12:30:19.266Z,1.20
2019-05-09T12:32:48.831Z,1.30
2019-05-09T12:35:19.033Z,1.07
2019-05-09T12:37:48.659Z,1.40
2019-05-09T12:40:20.009Z,1.07
2019-05-09T12:42:50.306Z,1.07
2019-05-09T12:45:19.895Z,1.57
2019-05-09T12:48:05.172Z,1.13
2019-05-09T12:50:20.649Z,2.13
2019-05-09T12:52:50.241Z,1.90
2019-05-09T12:55:19.777Z,1.83
2019-05-09T12:57:49.333Z,1.77
2019-05-09T13:00:19.334Z,1.50
2019-05-09T13:02:48.844Z,1.57
2019-05-09T13:05:18.385Z,1.40
2019-05-09T13:07:48.272Z,1.50
2019-05-09T13:10:19.470Z,1.20
2019-05-09T13:12:49.261Z,1.40
2019-05-09T13:15:20.990Z,0.83
2019-05-09T13:17:51.688Z,1.50
2019-05-09T13:20:21.236Z,1.90
2019-05-09T13:22:55.035Z,1.47
2019-05-09T13:25:30.288Z,1.70
2019-05-09T13:28:00.664Z,1.40
2019-05-09T13:30:31.187Z,1.13
2019-05-09T13:33:18.808Z,2.00
2019-05-09T13:36:23.876Z,1.83
2019-05-09T13:39:04.838Z,2.20
2019-05-09T13:44:41.292Z,1.90
2019-05-09T13:47:33.740Z,1.57
2019-05-09T13:53:31.171Z,1.23
2019-05-09T13:56:09.919Z,1.80
2019-05-09T13:58:49.403Z,1.30
2019-05-09T14:01:22.335Z,2.03
2019-05-09T14:03:57.449Z,1.47
2019-05-09T14:06:48.687Z,1.30
2019-05-09T14:09:19.956Z,1.17
2019-05-09T14:12:01.549Z,1.20
2019-05-09T14:14:52.632Z,1.07
2019-05-09T14:17:48.397Z,1.60
2019-05-09T14:20:19.271Z,1.10
2019-05-09T14:25:41.949Z,1.90
2019-05-09T14:28:13.854Z,1.30
2019-05-09T14:30:47.772Z,1.67
2019-05-09T14:33:22.292Z,1.17
2019-05-09T14:35:52.040Z,1.50
2019-05-09T14:38:21.705Z,1.20
2019-05-09T14:40:51.284Z,1.13
2019-05-09T14:43:20.862Z,2.23
2019-05-09T14:45:50.450Z,1.50
2019-05-09T14:48:20.204Z,1.27
2019-05-09T14:50:49.889Z,1.30
2019-05-09T14:53:19.455Z,1.10
2019-05-09T14:55:49.897Z,1.40
2019-05-09T14:58:20.411Z,1.30
2019-05-09T15:00:50.577Z,1.00
2019-05-09T15:03:20.201Z,1.30
2019-05-09T15:05:49.852Z,1.57
2019-05-09T15:08:20.007Z,1.63
2019-05-09T15:10:50.630Z,1.90
2019-05-09T15:13:21.040Z,1.80
2019-05-09T15:15:51.291Z,1.23
2019-05-09T15:18:21.121Z,1.37
2019-05-09T15:20:52.701Z,1.00
2019-05-09T15:23:23.058Z,1.63
2019-05-09T15:25:52.919Z,1.30
2019-05-09T15:28:22.582Z,1.60
2019-05-09T15:36:27.690Z,1.40
2019-05-09T15:39:27.783Z,1.10
2019-05-09T15:46:30.970Z,1.50
2019-05-09T15:49:28.350Z,1.50
2019-05-09T15:51:58.471Z,1.70
2019-05-09T15:54:29.449Z,1.40
2019-05-09T15:56:59.478Z,1.23
2019-05-09T15:59:29.823Z,1.20
2019-05-09T16:02:20.577Z,1.50
2019-05-09T16:04:58.405Z,1.17
2019-05-09T16:07:31.597Z,1.00
2019-05-09T16:10:21.374Z,1.90
2019-05-09T16:12:53.656Z,1.30
2019-05-09T16:15:23.195Z,1.20
2019-05-09T16:17:52.830Z,0.90
2019-05-09T16:20:36.300Z,1.30
2019-05-09T16:22:56.997Z,1.50
2019-05-09T16:25:24.796Z,1.40
2019-05-09T16:27:54.488Z,1.30
2019-05-09T16:30:24.754Z,1.30
2019-05-09T16:32:54.613Z,1.40
2019-05-09T16:35:24.363Z,1.80
2019-05-09T16:38:02.861Z,1.60
2019-05-09T16:40:25.084Z,2.07
2019-05-09T16:42:58.121Z,1.40
2019-05-09T16:45:28.720Z,1.43
2019-05-09T16:47:58.361Z,1.60
2019-05-09T16:50:28.695Z,1.77
2019-05-09T16:52:58.641Z,1.70
2019-05-09T16:55:44.352Z,2.53
2019-05-09T17:01:19.428Z,2.07
2019-05-09T17:04:04.907Z,2.23
2019-05-09T17:06:52.051Z,2.20
2019-05-09T17:09:57.916Z,2.13
2019-05-09T17:32:52.598Z,1.67
2019-05-09T17:59:49.761Z,2.10
2019-05-09T19:23:36.365Z,3.30
2019-05-09T19:27:05.966Z,2.40
2019-05-09T19:40:32.543Z,2.73
2019-05-09T19:46:48.127Z,2.30
2019-05-09T20:03:59.785Z,3.00
2019-05-09T20:06:31.127Z,3.20
2019-05-09T20:12:27.170Z,3.47
2019-05-09T20:15:02.616Z,3.20
2019-05-09T20:17:36.560Z,3.93
2019-05-09T20:20:09.017Z,4.13
2019-05-09T20:22:52.467Z,3.70
2019-05-09T20:28:28.093Z,4.23
2019-05-09T20:31:22.030Z,4.57
2019-05-09T20:37:13.573Z,3.50
2019-05-09T20:43:23.639Z,3.33
2019-05-09T20:45:54.611Z,3.43
2019-05-09T20:48:34.991Z,3.43
2019-05-09T20:51:37.216Z,3.63
2019-05-09T21:02:01.514Z,4.40
2019-05-09T21:05:34.749Z,4.97
2019-05-09T21:08:09.577Z,6.37
2019-05-09T21:10:44.535Z,5.20
2019-05-09T21:13:49.048Z,6.67
2019-05-09T21:16:41.603Z,5.43
2019-05-09T21:25:33.515Z,6.10
2019-05-09T21:28:22.832Z,6.67
2019-05-09T21:30:56.452Z,5.83
2019-05-09T21:33:26.525Z,6.75
2019-05-09T21:35:56.590Z,6.67
2019-05-09T21:38:26.575Z,5.97
2019-05-09T21:40:56.484Z,6.47
2019-05-09T21:43:26.621Z,6.87
2019-05-09T21:45:59.453Z,6.40
2019-05-09T21:48:32.130Z,6.72
2019-05-09T21:51:05.270Z,6.42
2019-05-09T21:53:40.778Z,5.20
2019-05-09T21:56:08.845Z,4.87
2019-05-09T21:58:39.345Z,5.47
2019-05-09T22:01:16.734Z,5.12
2019-05-09T22:04:07.070Z,5.40
2019-05-09T22:06:39.481Z,5.20
2019-05-09T22:09:10.318Z,6.22
2019-05-09T22:11:39.958Z,5.20
2019-05-09T22:14:09.845Z,5.50
2019-05-09T22:16:40.656Z,5.42
2019-05-09T22:19:12.163Z,6.00
2019-05-09T22:21:41.817Z,5.95
2019-05-09T22:24:11.571Z,5.75
2019-05-09T22:26:41.174Z,5.67
2019-05-09T22:29:12.073Z,6.25
2019-05-09T22:31:41.655Z,5.97
2019-05-09T22:34:11.468Z,5.65
2019-05-09T22:36:41.118Z,5.12
2019-05-09T22:39:10.938Z,6.53
2019-05-09T22:41:40.595Z,6.03
2019-05-09T22:44:10.201Z,6.53
2019-05-09T22:46:39.802Z,5.67
2019-05-09T22:49:09.414Z,5.80
2019-05-09T22:51:39.530Z,6.83
2019-05-09T22:54:12.568Z,5.90
2019-05-09T22:56:40.723Z,6.80
2019-05-09T22:59:10.499Z,7.05
2019-05-09T23:01:40.321Z,6.97
2019-05-09T23:04:10.670Z,7.22
2019-05-09T23:06:40.351Z,7.37
2019-05-09T23:09:10.110Z,6.58
2019-05-09T23:11:39.655Z,6.45
2019-05-09T23:14:12.032Z,7.12
2019-05-09T23:16:41.844Z,7.05
2019-05-09T23:19:11.878Z,9.98
2019-05-09T23:21:41.619Z,7.85
2019-05-09T23:24:27.490Z,7.53
2019-05-09T23:26:44.725Z,8.30
2019-05-09T23:29:14.666Z,9.40
2019-05-09T23:32:19.091Z,8.55
2019-05-09T23:34:48.459Z,9.15
2019-05-09T23:37:18.096Z,9.80
2019-05-09T23:39:48.574Z,8.23
2019-05-09T23:42:18.440Z,8.90
2019-05-09T23:44:54.542Z,8.90
2019-05-09T23:47:24.046Z,9.13
2019-05-09T23:49:53.835Z,8.40
2019-05-09T23:52:23.450Z,9.23
2019-05-09T23:55:10.313Z,9.55
2019-05-09T23:57:57.479Z,9.38
